Olive, MT

2:54 AM MDT on July 14, 2014 (GMT -0600)
Wiley (KMLS) Elev 2628 ft | 46.43 °N, 105.88 °W | Change Station

Current weather conditions updated 1 hour ago

Clear
Clear
59 °F
Feels Like 59 °F
N
8
Wind Variable Wind from NNE

Today is forecast to be Much Cooler than yesterday.

Today
High -- | Low -- °F
--% Chance of Precip.
Yesterday
High -- | Low -- °F
Precip. -- in
5:27 AM 8:49 PM
Waning Gibbous, 95% visible
Pressure 30.22 in
Visibility 10.0 miles
Clouds Clear
Dew Point 39 °F
Humidity 48%
Rainfall 0.00 in
Snow Depth Not available.
UV 0 out of 12
Pollen 5.10 out of 12
Air Quality Not available.
Flu Activity Sporadic
METAR KMLS 140753Z AUTO 03007KT 10SM CLR 15/04 A3026 RMK AO2 SLP231 T01500039

More Conditions Fewer Conditions

Pressure 30.22 in
Visibility 10.0 miles
Clouds Clear
Dew Point 39 °F
Humidity 48%
Rainfall 0.00 in
Snow Depth Not available.
UV 0 out of 12
Pollen 5.10 out of 12
Air Quality Not available.
Flu Activity Sporadic
METAR KMLS 140753Z AUTO 03007KT 10SM CLR 15/04 A3026 RMK AO2 SLP231 T01500039

More Conditions Fewer Conditions

10-Day Weather Forecast

Almanac

Astronomy

Jul. 14, 2014 Rise Set
Actual Time 5:27 AM MDT 8:49 PM MDT
Civil Twilight 4:50 AM MDT 9:25 PM MDT
Nautical Twilight 4:02 AM MDT 10:13 PM MDT
Astronomical Twilight 3:02 AM MDT 11:13 PM MDT
Moon 10:08 PM MDT 8:23 AM MDT
Length of Visible Light 16h 34m
Length of Day
15h 21m
Tomorrow will be 1m 39s shorter.
Waning Gibbous, 95% of the Moon is Illuminated
Today
Waning Gibbous
Jul 18
Last Quarter
Jul 26
New
Aug 3
First Quarter
Aug 10
Full

Today's Extremes

State Highs State Lows

Community

WunderPhotos

Upload Photos

1,733,585 photos uploaded!

Nearby

Snow Depth

Station Depth Elevation
Cole Creek 1 in 7850 ft
Burnt Mountain 1 in 5880 ft
Crystal Lake 1 in 6050 ft
White Mill 1 in 8700 ft
Fisher Creek 0 in 9100 ft

Earthquake Activity

City Distance Mag. Time & Date
No recent earthquake activity has been reported nearby.
Minimum magnitude displayed is 2.5.

Coastal Water Temperatures

Place Temperature
No Stations Reporting

Nearby Weather Stations

There are no personal weather stations in this area.